Terminal Aerodrome Forecast
Issued by NWS El Paso, TX

Home | Current Version | Previous Version | Text Only | Print | Product List | Glossary On
Versions: 1 2 3 4 5 6 7 8 9 10 11 12 13 14
352
FTUS44 KEPZ 260654 AAA
TAFELP
TAF AMD
KELP 260654Z 2607/2706 29012KT P6SM FEW150 BKN250
      TEMPO 2607/2609 29018G28KT
     FM261700 27018G28KT P6SM SKC
     FM270300 30011KT P6SM FEW250=

USA.gov is the U.S. government's official web portal to all federal, state and local government web resources and services.